Time;durP1;ratioP1;P1;durP2;ratioP2;P2;SDS_P1;SDS_P2;PMS_P1;PMS_P2;Temp;Humidity;BMP_temperature;BMP_pressure;BME280_temperature;BME280_humidity;BME280_pressure;Samples;Min_cycle;Max_cycle;Signal;HPM_P1;HPM_P2
2022/09/25 00:00:48;;;;;;;;;;;;;;;16.33;69.83;101296.88;1013561;29;738;-70
2022/09/25 00:01:38;;;;;;;;;;;;;;;16.32;69.65;101295.16;1020928;29;675;-70
2022/09/25 00:02:29;;;;;;;;;;;;;;;16.36;69.83;101303.00;1021631;28;686;-70
2022/09/25 00:03:19;;;;;;;;;;;;;;;16.32;69.98;101300.53;1014161;29;662;-70
2022/09/25 00:04:10;;;;;;;;;;;;;;;16.34;69.56;101300.44;1013999;29;690;-70
2022/09/25 00:05:01;;;;;;;;;;;;;;;16.33;69.74;101314.84;1020949;29;635;-71
2022/09/25 00:05:51;;;;;;;;;;;;;;;16.35;69.72;101309.34;1021602;28;650;-71
2022/09/25 00:06:42;;;;;;;;;;;;;;;16.31;69.49;101309.59;1014235;28;619;-71
2022/09/25 00:07:32;;;;;;;;;;;;;;;16.32;69.40;101305.06;1014064;29;800;-71
2022/09/25 00:08:22;;;;;;;;;;;;;;;16.32;69.80;101308.63;1013967;29;1966;-69
2022/09/25 00:09:17;;;;;;;;;;;;;;;16.34;69.06;101308.50;1021068;29;698;-70
2022/09/25 00:10:07;;;;;;;;;;;;;;;16.36;69.22;101311.91;1021534;28;729;-70
2022/09/25 00:10:58;;;;;;;;;;;;;;;16.36;69.52;101311.06;1013445;29;698;-69
2022/09/25 00:11:48;;;;;;;;;;;;;;;16.33;69.41;101313.00;1013554;29;678;-70
2022/09/25 00:12:38;;;;;;;;;;;;;;;16.31;69.92;101320.34;1013449;29;707;-70
2022/09/25 00:13:29;;;;;;;;;;;;;;;16.28;69.99;101315.25;1013974;29;635;-71
2022/09/25 00:14:19;;;;;;;;;;;;;;;16.30;69.82;101320.50;1014009;29;671;-70
2022/09/25 00:15:10;;;;;;;;;;;;;;;16.32;69.32;101324.75;1014034;29;636;-70
2022/09/25 00:16:01;;;;;;;;;;;;;;;16.31;69.78;101322.19;1013985;29;737;-70
2022/09/25 00:16:52;;;;;;;;;;;;;;;16.32;69.37;101315.84;1013953;29;694;-70
2022/09/25 00:17:42;;;;;;;;;;;;;;;16.30;69.59;101313.25;1014088;29;643;-70
2022/09/25 00:19:51;;;;;;;;;;;;;;;16.29;69.55;101321.50;1012771;29;628;-70
2022/09/25 00:20:42;;;;;;;;;;;;;;;16.28;69.49;101317.94;1013994;29;662;-70
2022/09/25 00:21:32;;;;;;;;;;;;;;;16.28;69.29;101320.63;1021048;29;725;-70
2022/09/25 00:22:23;;;;;;;;;;;;;;;16.29;69.57;101322.34;1021471;29;590;-70
2022/09/25 00:23:14;;;;;;;;;;;;;;;16.30;69.19;101320.50;1013967;29;575;-70
2022/09/25 00:24:04;;;;;;;;;;;;;;;16.30;69.19;101317.81;1014060;29;650;-70
2022/09/25 00:24:55;;;;;;;;;;;;;;;16.29;69.36;101327.72;1013899;29;643;-70
2022/09/25 00:25:46;;;;;;;;;;;;;;;16.29;69.28;101319.66;1023763;29;1704;-71
2022/09/25 00:26:36;;;;;;;;;;;;;;;16.28;69.20;101320.63;1024710;29;1671;-72
2022/09/25 00:27:27;;;;;;;;;;;;;;;16.28;69.17;101320.63;1017243;29;1735;-72
2022/09/25 00:28:17;;;;;;;;;;;;;;;16.25;69.39;101328.94;1017275;29;647;-71
2022/09/25 00:29:09;;;;;;;;;;;;;;;16.26;69.24;101327.97;1017242;29;683;-70
2022/09/25 00:29:59;;;;;;;;;;;;;;;16.27;69.15;101323.44;1017233;29;725;-71
2022/09/25 00:30:50;;;;;;;;;;;;;;;16.27;69.10;101326.97;1017219;29;663;-71
2022/09/25 00:31:40;;;;;;;;;;;;;;;16.25;69.67;101323.56;1017275;29;720;-71
2022/09/25 00:32:31;;;;;;;;;;;;;;;16.27;69.61;101326.13;1017241;29;620;-71
2022/09/25 00:33:21;;;;;;;;;;;;;;;16.25;69.39;101318.19;1017145;29;615;-71
2022/09/25 00:34:12;;;;;;;;;;;;;;;16.23;68.95;101320.13;1017804;29;717;-71
2022/09/25 00:35:02;;;;;;;;;;;;;;;16.23;68.76;101316.59;1017179;29;683;-71
2022/09/25 00:35:52;;;;;;;;;;;;;;;16.23;69.11;101322.81;1017217;29;647;-71
2022/09/25 00:36:43;;;;;;;;;;;;;;;16.24;69.76;101324.53;1017217;29;619;-70
2022/09/25 00:37:33;;;;;;;;;;;;;;;16.25;69.47;101323.56;1017273;29;694;-71
2022/09/25 00:38:24;;;;;;;;;;;;;;;16.25;68.96;101328.94;1017035;29;979;-71
2022/09/25 00:39:14;;;;;;;;;;;;;;;16.25;69.05;101326.25;1017341;29;749;-71
2022/09/25 00:40:05;;;;;;;;;;;;;;;16.22;69.14;101321.13;1017163;29;686;-71
2022/09/25 00:40:55;;;;;;;;;;;;;;;16.24;69.06;101324.53;1017234;29;666;-70
2022/09/25 00:41:46;;;;;;;;;;;;;;;16.22;69.44;101321.13;1017145;29;640;-71
2022/09/25 00:42:36;;;;;;;;;;;;;;;16.24;69.25;101321.00;1017220;29;663;-70
2022/09/25 00:43:27;;;;;;;;;;;;;;;16.23;68.75;101322.81;1017134;29;635;-71
2022/09/25 00:44:17;;;;;;;;;;;;;;;16.23;69.32;101319.28;1017240;29;691;-70
2022/09/25 00:45:08;;;;;;;;;;;;;;;16.24;69.58;101321.00;1017162;29;643;-71
2022/09/25 00:45:58;;;;;;;;;;;;;;;16.20;69.44;101312.31;1017119;29;636;-71
2022/09/25 00:46:49;;;;;;;;;;;;;;;16.21;69.38;101319.41;1014994;29;1282;-70
2022/09/25 00:47:39;;;;;;;;;;;;;;;16.20;68.80;101315.00;1013292;29;730;-70
2022/09/25 00:48:30;;;;;;;;;;;;;;;16.21;69.19;101318.53;1013292;29;1891;-70
2022/09/25 00:49:20;;;;;;;;;;;;;;;16.21;69.20;101322.09;1013106;29;623;-70
2022/09/25 00:50:10;;;;;;;;;;;;;;;16.23;69.05;101316.59;1012735;29;636;-70
2022/09/25 00:51:01;;;;;;;;;;;;;;;16.23;69.02;101317.44;1013282;29;635;-70
2022/09/25 00:51:51;;;;;;;;;;;;;;;16.21;69.12;101316.72;1013252;29;639;-70
2022/09/25 00:52:42;;;;;;;;;;;;;;;16.22;68.91;101309.50;1013322;29;645;-70
2022/09/25 00:53:32;;;;;;;;;;;;;;;16.21;69.30;101319.41;1016406;29;651;-70
2022/09/25 00:54:23;;;;;;;;;;;;;;;16.21;68.76;101315.84;1016909;29;624;-69
2022/09/25 00:55:13;;;;;;;;;;;;;;;16.22;68.93;101317.56;1014033;29;1627;-69
2022/09/25 00:56:04;;;;;;;;;;;;;;;16.21;68.35;101313.16;1017036;29;674;-70
2022/09/25 00:56:54;;;;;;;;;;;;;;;16.21;69.23;101316.72;1017761;29;662;-71
2022/09/25 00:57:44;;;;;;;;;;;;;;;16.18;69.39;101311.59;1017734;29;705;-70
2022/09/25 00:58:35;;;;;;;;;;;;;;;16.18;68.73;101310.72;1017690;29;631;-70
2022/09/25 00:59:25;;;;;;;;;;;;;;;16.19;69.35;101318.66;1012897;29;1292;-70
2022/09/25 01:00:16;;;;;;;;;;;;;;;16.20;69.11;101308.78;1013056;29;1188;-70
2022/09/25 01:01:06;;;;;;;;;;;;;;;16.20;69.16;101312.31;1012436;29;1066;-70
2022/09/25 01:01:57;;;;;;;;;;;;;;;16.19;69.10;101310.59;1011075;29;1098;-70
2022/09/25 01:02:48;;;;;;;;;;;;;;;16.19;68.82;101317.81;1011336;29;1141;-70
2022/09/25 01:03:39;;;;;;;;;;;;;;;16.20;69.08;101317.69;1011711;29;1243;-70
2022/09/25 01:04:29;;;;;;;;;;;;;;;16.18;68.74;101316.97;1013340;29;1094;-70
2022/09/25 01:05:20;;;;;;;;;;;;;;;16.20;69.23;101316.84;1012285;29;1153;-70
2022/09/25 01:06:11;;;;;;;;;;;;;;;16.21;68.87;101327.47;1011622;29;1102;-70
2022/09/25 01:07:01;;;;;;;;;;;;;;;16.16;69.11;101321.59;1012905;29;1217;-70
2022/09/25 01:07:52;;;;;;;;;;;;;;;16.16;69.23;101310.84;1011964;29;1276;-70
2022/09/25 01:08:43;;;;;;;;;;;;;;;16.18;68.71;101321.47;1013032;29;1922;-70
2022/09/25 01:09:33;;;;;;;;;;;;;;;16.18;68.88;101316.97;1011608;29;1075;-70
2022/09/25 01:10:24;;;;;;;;;;;;;;;16.18;68.98;101316.09;1013010;29;1262;-70
2022/09/25 01:11:14;;;;;;;;;;;;;;;16.15;68.91;101319.88;1012099;29;1114;-70
2022/09/25 01:12:04;;;;;;;;;;;;;;;16.14;69.42;101312.81;1012882;29;1306;-70
2022/09/25 01:12:55;;;;;;;;;;;;;;;16.16;69.23;101316.22;1012119;29;1126;-70
2022/09/25 01:13:45;;;;;;;;;;;;;;;16.14;68.55;101320.00;1012551;29;1303;-70
2022/09/25 01:14:36;;;;;;;;;;;;;;;16.13;69.52;101315.59;1013156;29;1157;-70
2022/09/25 01:15:26;;;;;;;;;;;;;;;16.14;69.20;101310.09;1013077;29;1294;-70
2022/09/25 01:16:16;;;;;;;;;;;;;;;16.14;68.57;101312.81;1012392;29;1122;-70
2022/09/25 01:17:07;;;;;;;;;;;;;;;16.14;69.06;101310.09;1010592;29;1074;-69
2022/09/25 01:17:57;;;;;;;;;;;;;;;16.13;69.43;101311.09;1012399;29;1134;-69
2022/09/25 01:18:48;;;;;;;;;;;;;;;16.16;68.74;101310.00;1011354;29;1094;-70
2022/09/25 01:19:38;;;;;;;;;;;;;;;16.14;69.22;101312.81;1011213;29;1164;-70
2022/09/25 01:20:29;;;;;;;;;;;;;;;16.16;69.13;101313.53;1011829;29;1163;-70
2022/09/25 01:21:19;;;;;;;;;;;;;;;16.14;68.67;101315.50;1012635;29;1168;-70
2022/09/25 01:22:10;;;;;;;;;;;;;;;16.11;69.40;101313.06;1011934;29;1140;-70
2022/09/25 01:23:00;;;;;;;;;;;;;;;16.10;69.18;101314.06;1012609;29;1214;-71
2022/09/25 01:23:51;;;;;;;;;;;;;;;16.08;69.18;101313.31;1012248;29;1186;-70
2022/09/25 01:24:41;;;;;;;;;;;;;;;16.06;69.28;101317.97;1011903;29;1158;-70
2022/09/25 01:25:32;;;;;;;;;;;;;;;16.06;68.93;101309.91;1011848;29;1512;-71
2022/09/25 01:26:22;;;;;;;;;;;;;;;16.09;68.61;101309.66;1013581;29;1237;-70
2022/09/25 01:27:13;;;;;;;;;;;;;;;16.08;69.13;101315.16;1013137;29;1429;-70
2022/09/25 01:28:03;;;;;;;;;;;;;;;16.11;68.74;101318.44;1013593;29;1194;-70
2022/09/25 01:28:54;;;;;;;;;;;;;;;16.11;68.79;101313.06;1011899;29;2017;-70
2022/09/25 01:29:45;;;;;;;;;;;;;;;16.11;69.31;101313.06;1012997;29;1360;-70
2022/09/25 01:30:35;;;;;;;;;;;;;;;16.09;68.34;101306.97;1012726;29;1191;-70
2022/09/25 01:31:26;;;;;;;;;;;;;;;16.09;68.68;101304.28;1012563;29;1255;-71
2022/09/25 01:32:16;;;;;;;;;;;;;;;16.10;68.83;101310.50;1012866;29;1175;-71
2022/09/25 01:33:06;;;;;;;;;;;;;;;16.10;68.46;101300.59;1013068;29;1178;-71
2022/09/25 01:33:57;;;;;;;;;;;;;;;16.10;69.01;101313.19;1012957;29;1134;-70
2022/09/25 01:34:47;;;;;;;;;;;;;;;16.08;68.45;101305.25;1011683;29;1218;-71
2022/09/25 01:35:38;;;;;;;;;;;;;;;16.07;68.97;101305.38;1012518;29;1187;-70
2022/09/25 01:36:29;;;;;;;;;;;;;;;16.06;68.68;101307.19;1013121;29;1183;-71
2022/09/25 01:37:19;;;;;;;;;;;;;;;16.07;68.33;101306.22;1013143;29;1175;-70
2022/09/25 01:38:10;;;;;;;;;;;;;;;16.08;68.72;101305.25;1011798;29;1155;-70
2022/09/25 01:39:00;;;;;;;;;;;;;;;16.08;68.91;101307.94;1012285;29;1171;-69
2022/09/25 01:39:51;;;;;;;;;;;;;;;16.07;68.50;101311.59;1012004;29;1096;-70
2022/09/25 01:40:42;;;;;;;;;;;;;;;16.08;68.18;101302.56;1011837;29;1016;-70
2022/09/25 01:41:32;;;;;;;;;;;;;;;16.06;68.92;101301.81;1013129;29;1016;-70
2022/09/25 01:42:23;;;;;;;;;;;;;;;16.10;68.51;101311.38;1012856;29;1190;-71
2022/09/25 01:43:13;;;;;;;;;;;;;;;16.07;68.93;101306.22;1013144;29;1245;-71
2022/09/25 01:44:04;;;;;;;;;;;;;;;16.07;68.50;101314.28;1012980;29;1194;-70
2022/09/25 01:44:55;;;;;;;;;;;;;;;16.06;68.68;101312.59;1013114;29;1183;-71
2022/09/25 01:45:45;;;;;;;;;;;;;;;16.06;68.40;101307.19;1011855;29;1116;-71
2022/09/25 01:46:36;;;;;;;;;;;;;;;16.05;68.80;101310.00;1012533;29;1217;-70
2022/09/25 01:47:26;;;;;;;;;;;;;;;16.03;68.31;101315.50;1011869;29;1253;-71
2022/09/25 01:48:17;;;;;;;;;;;;;;;16.04;68.17;101303.78;1013503;29;1235;-71
2022/09/25 01:49:07;;;;;;;;;;;;;;;16.01;68.85;101308.53;1015575;29;1247;-71
2022/09/25 01:49:58;;;;;;;;;;;;;;;16.00;68.94;101312.22;1014023;29;1255;-71
2022/09/25 01:50:48;;;;;;;;;;;;;;;16.01;68.74;101317.47;1015573;29;1317;-71
2022/09/25 01:51:38;;;;;;;;;;;;;;;16.03;68.68;101307.44;1014181;29;1267;-71
2022/09/25 01:52:29;;;;;;;;;;;;;;;16.04;68.21;101308.31;1015505;29;1282;-71
2022/09/25 01:53:20;;;;;;;;;;;;;;;16.05;68.38;101318.94;1014158;29;1108;-71
2022/09/25 01:54:10;;;;;;;;;;;;;;;16.03;68.81;101312.81;1016858;29;1357;-71
2022/09/25 01:55:01;;;;;;;;;;;;;;;16.06;68.41;101307.19;1017051;29;632;-71
2022/09/25 01:55:51;;;;;;;;;;;;;;;16.02;68.72;101313.81;1016190;29;1678;-71
2022/09/25 01:56:42;;;;;;;;;;;;;;;16.04;68.39;101311.00;1013650;29;703;-71
2022/09/25 01:57:32;;;;;;;;;;;;;;;16.04;67.91;101308.31;1013375;29;1375;-70
2022/09/25 01:58:23;;;;;;;;;;;;;;;16.05;68.45;101308.19;1013017;29;1081;-69
2022/09/25 01:59:13;;;;;;;;;;;;;;;16.06;68.26;101306.34;1014978;29;1165;-69
2022/09/25 02:00:04;;;;;;;;;;;;;;;16.04;68.29;101305.63;1016976;29;1069;-70
2022/09/25 02:00:54;;;;;;;;;;;;;;;16.03;68.32;101312.81;1013057;29;1101;-70
2022/09/25 02:01:45;;;;;;;;;;;;;;;16.00;68.41;101314.91;1017550;29;1081;-70
2022/09/25 02:02:36;;;;;;;;;;;;;;;16.02;68.61;101313.81;1013833;29;1184;-70
2022/09/25 02:03:26;;;;;;;;;;;;;;;16.03;68.63;101306.59;1017668;29;1151;-70
2022/09/25 02:04:17;;;;;;;;;;;;;;;16.03;68.01;101301.22;1016513;29;1077;-70
2022/09/25 02:05:07;;;;;;;;;;;;;;;16.02;67.94;101312.94;1018132;29;1179;-70
2022/09/25 02:05:58;;;;;;;;;;;;;;;16.01;68.71;101298.66;1013468;29;1100;-70
2022/09/25 02:06:48;;;;;;;;;;;;;;;15.99;68.77;101297.91;1018939;29;1114;-70
2022/09/25 02:07:38;;;;;;;;;;;;;;;15.97;68.69;101310.63;1017681;29;1276;-70
2022/09/25 02:08:29;;;;;;;;;;;;;;;15.97;68.43;101305.25;1017711;29;1915;-70
2022/09/25 02:09:19;;;;;;;;;;;;;;;16.00;68.53;101302.31;1017483;29;1158;-70
2022/09/25 02:10:10;;;;;;;;;;;;;;;16.00;68.39;101302.31;1017605;29;1173;-70
2022/09/25 02:11:01;;;;;;;;;;;;;;;16.01;67.89;101308.53;1017395;29;1073;-70
2022/09/25 02:11:54;;;;;;;;;;;;;;;16.02;68.11;101303.03;1016664;29;1134;-70
2022/09/25 02:12:45;;;;;;;;;;;;;;;15.99;68.21;101308.66;1017599;29;1097;-70
2022/09/25 02:13:36;;;;;;;;;;;;;;;15.97;68.52;101311.47;1017518;29;1097;-70
2022/09/25 02:14:26;;;;;;;;;;;;;;;15.95;68.40;101310.72;1017517;29;1177;-69
2022/09/25 02:15:16;;;;;;;;;;;;;;;15.93;68.06;101310.03;1017654;29;1096;-69
2022/09/25 02:16:07;;;;;;;;;;;;;;;15.96;68.52;101315.13;1014017;29;1103;-70
2022/09/25 02:16:57;;;;;;;;;;;;;;;16.01;67.96;101311.22;1015826;29;1101;-70
2022/09/25 02:21:15;;;;;;;;;;;;;;;15.96;67.87;101309.75;1016865;29;1101;-70
2022/09/25 02:22:05;;;;;;;;;;;;;;;15.97;68.44;101311.47;1017563;29;1227;-70
2022/09/25 02:22:56;;;;;;;;;;;;;;;15.99;68.25;101303.28;1016380;29;1093;-70
2022/09/25 02:23:46;;;;;;;;;;;;;;;15.97;67.66;101310.63;1015729;29;1097;-70
2022/09/25 02:24:37;;;;;;;;;;;;;;;16.01;67.76;101311.22;1016999;29;1097;-70
2022/09/25 02:25:27;;;;;;;;;;;;;;;15.99;68.04;101300.59;1017298;29;635;-70
2022/09/25 02:26:19;;;;;;;;;;;;;;;15.98;67.44;101312.31;1016905;29;1488;-70
2022/09/25 02:27:10;;;;;;;;;;;;;;;15.98;67.80;101309.63;1018482;28;801;-70
2022/09/25 02:28:00;;;;;;;;;;;;;;;16.04;67.75;101316.38;1017193;29;1213;-70
2022/09/25 02:28:52;;;;;;;;;;;;;;;16.02;67.92;101305.72;1016504;29;1891;-70
2022/09/25 02:29:43;;;;;;;;;;;;;;;15.99;67.77;101311.34;1018091;29;1195;-70
2022/09/25 02:30:33;;;;;;;;;;;;;;;15.97;67.86;101308.78;1016456;29;1152;-71
2022/09/25 02:31:24;;;;;;;;;;;;;;;15.94;68.02;101317.09;1018217;29;1210;-69
2022/09/25 02:32:14;;;;;;;;;;;;;;;15.95;68.29;101309.88;1020279;29;1393;-69
2022/09/25 02:33:05;;;;;;;;;;;;;;;15.96;67.70;101312.44;1018401;29;1325;-69
2022/09/25 02:33:55;;;;;;;;;;;;;;;15.97;68.14;101313.31;1020482;29;1258;-70
2022/09/25 02:34:46;;;;;;;;;;;;;;;15.96;68.40;101308.91;1018459;29;1329;-70
2022/09/25 02:35:37;;;;;;;;;;;;;;;15.98;67.75;101305.13;1020642;29;1286;-70
2022/09/25 02:36:27;;;;;;;;;;;;;;;15.97;68.30;101306.09;1018935;29;1194;-70
2022/09/25 02:37:18;;;;;;;;;;;;;;;15.96;67.95;101314.28;1020671;29;1210;-69
2022/09/25 02:38:08;;;;;;;;;;;;;;;15.93;67.69;101314.56;1019382;29;1233;-70
2022/09/25 02:38:59;;;;;;;;;;;;;;;15.94;68.17;101316.25;1020661;29;1305;-70
2022/09/25 02:39:49;;;;;;;;;;;;;;;15.96;67.96;101300.84;1019276;29;1273;-69
2022/09/25 02:40:39;;;;;;;;;;;;;;;15.98;67.90;101301.56;1018883;29;1289;-69
2022/09/25 02:41:30;;;;;;;;;;;;;;;15.97;67.83;101306.09;1019684;29;1305;-70
2022/09/25 02:42:20;;;;;;;;;;;;;;;15.94;68.23;101300.97;1020524;29;1412;-70
2022/09/25 02:43:11;;;;;;;;;;;;;;;15.95;67.81;101305.34;1018513;29;1241;-70
2022/09/25 02:44:01;;;;;;;;;;;;;;;15.93;67.64;101307.34;1020629;29;1230;-70
2022/09/25 02:44:52;;;;;;;;;;;;;;;15.93;68.02;101301.13;1019831;29;1207;-70
2022/09/25 02:45:42;;;;;;;;;;;;;;;15.91;67.70;101305.75;1016935;29;1250;-70
2022/09/25 02:46:32;;;;;;;;;;;;;;;15.91;68.04;101301.22;1019921;29;1238;-70
2022/09/25 02:47:23;;;;;;;;;;;;;;;15.93;67.75;101301.13;1019598;29;1358;-70
2022/09/25 02:48:14;;;;;;;;;;;;;;;15.93;67.89;101309.19;1020128;29;1261;-70
2022/09/25 02:49:04;;;;;;;;;;;;;;;15.95;67.92;101308.03;1019839;29;1221;-70
2022/09/25 02:49:55;;;;;;;;;;;;;;;15.92;67.98;101302.94;1019191;29;1258;-70
2022/09/25 02:50:46;;;;;;;;;;;;;;;15.90;67.91;101296.84;1019591;29;1202;-70
2022/09/25 02:51:36;;;;;;;;;;;;;;;15.93;67.84;101298.41;1020516;29;1346;-70
2022/09/25 02:52:27;;;;;;;;;;;;;;;15.92;67.86;101299.41;1018605;29;1333;-70
2022/09/25 02:53:17;;;;;;;;;;;;;;;15.91;67.55;101295.00;1020612;29;1276;-70
2022/09/25 02:54:07;;;;;;;;;;;;;;;15.90;67.57;101298.66;1018888;29;1258;-70
2022/09/25 02:54:58;;;;;;;;;;;;;;;15.91;67.50;101305.75;1019997;29;1386;-70
2022/09/25 02:55:48;;;;;;;;;;;;;;;15.91;67.77;101303.91;1019271;29;1251;-70
2022/09/25 02:56:40;;;;;;;;;;;;;;;15.92;67.56;101299.41;1020336;29;1336;-70
2022/09/25 02:57:31;;;;;;;;;;;;;;;15.92;67.39;101297.56;1019696;29;1302;-70
2022/09/25 02:58:21;;;;;;;;;;;;;;;15.92;67.75;101297.56;1020004;29;1361;-70
2022/09/25 02:59:12;;;;;;;;;;;;;;;15.93;67.45;101301.13;1019699;29;1263;-69
2022/09/25 03:00:03;;;;;;;;;;;;;;;15.89;67.71;101305.00;1016005;29;1332;-70
2022/09/25 03:00:53;;;;;;;;;;;;;;;15.88;67.95;101304.16;1018746;29;1261;-70
2022/09/25 03:01:45;;;;;;;;;;;;;;;15.90;67.51;101306.72;1017254;29;1258;-70
2022/09/25 03:02:36;;;;;;;;;;;;;;;15.87;67.81;101302.44;1020290;29;1234;-70
2022/09/25 03:03:26;;;;;;;;;;;;;;;15.91;67.50;101303.06;1022042;29;639;-71
2022/09/25 03:04:16;;;;;;;;;;;;;;;15.91;67.31;101309.28;1022016;29;725;-70
2022/09/25 03:05:07;;;;;;;;;;;;;;;15.89;67.34;101307.69;1019714;28;1645;-70
2022/09/25 03:05:57;;;;;;;;;;;;;;;15.91;67.48;101305.75;1017847;28;690;-70
2022/09/25 03:06:48;;;;;;;;;;;;;;;15.89;67.48;101302.31;1018246;29;650;-70
2022/09/25 03:08:48;;;;;;;;;;;;;;;15.87;67.52;101305.13;1017566;29;1911;-70
2022/09/25 03:09:38;;;;;;;;;;;;;;;15.90;67.33;101309.41;1017543;29;612;-70
2022/09/25 03:10:30;;;;;;;;;;;;;;;15.91;67.32;101301.22;1018274;29;650;-70
2022/09/25 03:11:20;;;;;;;;;;;;;;;15.91;67.20;101303.06;1018257;28;630;-70
2022/09/25 03:12:11;;;;;;;;;;;;;;;15.87;67.30;101302.44;1017387;29;530;-70
2022/09/25 03:13:01;;;;;;;;;;;;;;;15.87;67.54;101302.44;1016773;29;698;-70
2022/09/25 03:13:52;;;;;;;;;;;;;;;15.85;67.44;101307.09;1017469;29;627;-70
2022/09/25 03:14:42;;;;;;;;;;;;;;;15.81;67.51;101296.69;1018165;29;639;-70
2022/09/25 03:15:34;;;;;;;;;;;;;;;15.80;67.36;101309.28;1018135;29;643;-70
2022/09/25 03:16:24;;;;;;;;;;;;;;;15.84;67.42;101297.31;1017584;29;637;-71
2022/09/25 03:17:16;;;;;;;;;;;;;;;15.83;67.27;101300.97;1018149;29;655;-71
2022/09/25 03:18:07;;;;;;;;;;;;;;;15.85;67.41;101303.53;1018162;28;623;-70
2022/09/25 03:18:57;;;;;;;;;;;;;;;15.80;67.78;101298.53;1018242;29;632;-70
2022/09/25 03:19:48;;;;;;;;;;;;;;;15.82;67.47;101307.31;1017531;29;706;-70
2022/09/25 03:20:39;;;;;;;;;;;;;;;15.80;67.46;101309.28;1018222;29;686;-71
2022/09/25 03:21:29;;;;;;;;;;;;;;;15.82;67.51;101303.78;1017511;29;611;-71
2022/09/25 03:22:20;;;;;;;;;;;;;;;15.84;67.43;101304.53;1016789;29;667;-71
2022/09/25 03:23:10;;;;;;;;;;;;;;;15.85;67.40;101303.53;1018063;29;688;-71
2022/09/25 03:24:01;;;;;;;;;;;;;;;15.86;67.36;101305.25;1023584;29;675;-71
2022/09/25 03:24:51;;;;;;;;;;;;;;;15.84;67.42;101312.59;1025583;28;1610;-71
2022/09/25 03:25:41;;;;;;;;;;;;;;;15.83;67.36;101309.03;1014438;28;685;-71
2022/09/25 03:26:32;;;;;;;;;;;;;;;15.82;67.30;101306.47;1014965;29;1273;-70
2022/09/25 03:27:24;;;;;;;;;;;;;;;15.82;67.59;101306.47;1019260;29;1293;-70
2022/09/25 03:28:14;;;;;;;;;;;;;;;15.83;67.27;101310.88;1019922;29;1246;-70
2022/09/25 03:29:05;;;;;;;;;;;;;;;15.82;67.15;101312.69;1019958;29;1449;-70
2022/09/25 03:29:55;;;;;;;;;;;;;;;15.86;66.61;101310.63;1020609;29;1301;-70
2022/09/25 03:30:45;;;;;;;;;;;;;;;15.86;67.16;101314.19;1019842;29;1309;-70
2022/09/25 03:31:36;;;;;;;;;;;;;;;15.84;67.38;101302.69;1017599;29;1274;-70
2022/09/25 03:32:26;;;;;;;;;;;;;;;15.88;67.06;101316.75;1019870;29;1304;-70
2022/09/25 03:33:17;;;;;;;;;;;;;;;15.84;67.16;101312.59;1017595;29;1235;-70
2022/09/25 03:34:07;;;;;;;;;;;;;;;15.85;67.20;101311.59;1020088;29;1242;-71
2022/09/25 03:34:58;;;;;;;;;;;;;;;15.83;66.74;101308.19;1017439;29;1289;-71
2022/09/25 03:35:48;;;;;;;;;;;;;;;15.77;67.06;101309.50;1020253;29;1199;-70
2022/09/25 03:36:39;;;;;;;;;;;;;;;15.76;67.29;101312.34;1018104;29;1305;-70
2022/09/25 03:37:31;;;;;;;;;;;;;;;15.82;67.10;101312.69;1020057;29;1305;-71
2022/09/25 03:38:21;;;;;;;;;;;;;;;15.79;67.22;101304.03;1019180;29;1314;-71
2022/09/25 03:39:13;;;;;;;;;;;;;;;15.81;66.91;101310.13;1024412;29;1294;-70
2022/09/25 03:40:04;;;;;;;;;;;;;;;15.80;67.12;101314.66;1019082;29;1250;-70
2022/09/25 03:40:54;;;;;;;;;;;;;;;15.79;67.04;101306.72;1020176;29;1325;-71
2022/09/25 03:41:45;;;;;;;;;;;;;;;15.78;67.08;101310.38;1018864;29;1330;-71
2022/09/25 03:42:35;;;;;;;;;;;;;;;15.81;66.97;101310.13;1016137;29;1258;-71
2022/09/25 03:43:26;;;;;;;;;;;;;;;15.78;67.03;101305.84;1019722;29;1238;-71
2022/09/25 03:44:16;;;;;;;;;;;;;;;15.78;67.24;101305.00;1017530;29;1306;-72
2022/09/25 03:45:08;;;;;;;;;;;;;;;15.80;66.96;101305.72;1019815;29;1258;-70
2022/09/25 03:45:59;;;;;;;;;;;;;;;15.80;66.84;101308.41;1018056;29;1251;-71
2022/09/25 03:46:49;;;;;;;;;;;;;;;15.80;66.91;101311.09;1019684;29;1262;-71
2022/09/25 03:47:40;;;;;;;;;;;;;;;15.80;66.78;101309.28;1018315;29;1242;-71
2022/09/25 03:48:30;;;;;;;;;;;;;;;15.83;66.90;101302.81;1020390;29;1282;-71
2022/09/25 03:49:21;;;;;;;;;;;;;;;15.82;67.04;101309.16;1018010;29;1270;-71
2022/09/25 03:50:11;;;;;;;;;;;;;;;15.80;66.87;101303.03;1019888;29;1352;-71
2022/09/25 03:51:02;;;;;;;;;;;;;;;15.79;66.63;101304.03;1017803;29;1250;-71
2022/09/25 03:51:52;;;;;;;;;;;;;;;15.77;66.96;101300.59;1020436;29;1376;-71
2022/09/25 03:52:43;;;;;;;;;;;;;;;15.78;66.94;101299.63;1019028;29;1297;-71
2022/09/25 03:53:33;;;;;;;;;;;;;;;15.73;67.19;101309.91;1020122;29;1502;-71
2022/09/25 03:54:24;;;;;;;;;;;;;;;15.74;67.27;101304.41;1019427;29;1274;-71
2022/09/25 03:55:14;;;;;;;;;;;;;;;15.78;66.94;101299.63;1024212;29;1416;-71
2022/09/25 03:56:04;;;;;;;;;;;;;;;15.76;66.89;101301.59;1019253;29;1246;-71
2022/09/25 03:56:55;;;;;;;;;;;;;;;15.72;66.99;101300.13;1021909;29;701;-71
2022/09/25 03:57:45;;;;;;;;;;;;;;;15.73;67.20;101299.16;1021818;29;663;-71
2022/09/25 03:58:36;;;;;;;;;;;;;;;15.76;66.90;101302.47;1021910;29;631;-71
2022/09/25 03:59:26;;;;;;;;;;;;;;;15.77;66.81;101301.44;1017290;29;659;-71
2022/09/25 04:00:17;;;;;;;;;;;;;;;15.78;66.93;101294.25;1017326;29;658;-70
2022/09/25 04:01:07;;;;;;;;;;;;;;;15.78;66.74;101294.25;1017416;29;648;-70
2022/09/25 04:01:57;;;;;;;;;;;;;;;15.79;67.00;101298.66;1017328;29;622;-71
2022/09/25 04:02:48;;;;;;;;;;;;;;;15.78;67.00;101296.94;1017436;29;752;-71
2022/09/25 04:03:39;;;;;;;;;;;;;;;15.78;66.66;101296.94;1016915;29;670;-70
2022/09/25 04:04:31;;;;;;;;;;;;;;;15.80;66.79;101301.22;1017451;29;638;-71
2022/09/25 04:05:21;;;;;;;;;;;;;;;15.75;66.91;101298.06;1017337;29;623;-71
2022/09/25 04:06:11;;;;;;;;;;;;;;;15.77;66.89;101295.22;1017348;29;709;-70
2022/09/25 04:07:02;;;;;;;;;;;;;;;15.75;66.53;101297.19;1017086;29;690;-70
2022/09/25 04:07:52;;;;;;;;;;;;;;;15.76;67.10;101301.59;1016428;29;648;-71
2022/09/25 04:08:43;;;;;;;;;;;;;;;15.76;66.83;101296.22;1017315;29;1976;-71
2022/09/25 04:09:33;;;;;;;;;;;;;;;15.73;67.03;101293.78;1017371;29;667;-71
2022/09/25 04:10:24;;;;;;;;;;;;;;;15.70;66.93;101291.34;1017420;29;702;-70
2022/09/25 04:11:14;;;;;;;;;;;;;;;15.71;66.75;101295.72;1017496;29;631;-71
2022/09/25 04:12:07;;;;;;;;;;;;;;;15.71;66.67;101291.22;1017288;29;619;-71
2022/09/25 04:12:58;;;;;;;;;;;;;;;15.70;66.90;101285.97;1017356;29;639;-69
2022/09/25 04:13:48;;;;;;;;;;;;;;;15.71;66.90;101284.97;1017343;29;627;-70
2022/09/25 04:14:39;;;;;;;;;;;;;;;15.70;66.58;101285.97;1017376;29;640;-70
2022/09/25 04:15:30;;;;;;;;;;;;;;;15.73;66.93;101286.56;1016750;29;636;-70
2022/09/25 04:16:21;;;;;;;;;;;;;;;15.71;66.31;101293.03;1016970;29;611;-70
2022/09/25 04:17:11;;;;;;;;;;;;;;;15.73;67.09;101291.09;1016941;29;619;-71
2022/09/25 04:18:02;;;;;;;;;;;;;;;15.71;66.60;101283.16;1016324;29;686;-71
2022/09/25 04:18:52;;;;;;;;;;;;;;;15.71;66.80;101288.53;1017277;29;746;-70
2022/09/25 04:19:43;;;;;;;;;;;;;;;15.73;66.58;101283.88;1017318;29;682;-70
2022/09/25 04:20:33;;;;;;;;;;;;;;;15.74;66.41;101288.28;1017257;29;679;-70
2022/09/25 04:21:23;;;;;;;;;;;;;;;15.72;66.83;101290.22;1017320;29;713;-70
2022/09/25 04:22:14;;;;;;;;;;;;;;;15.72;66.44;101287.56;1016534;29;706;-70
2022/09/25 04:23:04;;;;;;;;;;;;;;;15.70;66.37;101281.44;1016997;29;631;-71
2022/09/25 04:25:04;;;;;;;;;;;;;;;15.71;66.60;101283.16;1013284;29;1731;-71
2022/09/25 04:25:54;;;;;;;;;;;;;;;15.72;66.69;101282.19;1013974;29;615;-71
2022/09/25 04:26:45;;;;;;;;;;;;;;;15.72;66.46;101284.00;1016452;29;593;-71
2022/09/25 04:27:36;;;;;;;;;;;;;;;15.71;66.40;101284.97;1017026;29;658;-70
2022/09/25 04:28:26;;;;;;;;;;;;;;;15.74;66.31;101282.91;1012844;29;759;-71
2022/09/25 04:29:16;;;;;;;;;;;;;;;15.75;66.27;101281.06;1013981;29;694;-71
2022/09/25 04:30:07;;;;;;;;;;;;;;;15.75;66.30;101281.94;1013850;29;647;-71
2022/09/25 04:30:57;;;;;;;;;;;;;;;15.73;66.51;101277.66;1013322;29;615;-70
2022/09/25 04:33:44;;;;;;;;;;;;;;;15.70;66.40;101276.06;1013403;29;576;-71